Time;durP1;ratioP1;P1;durP2;ratioP2;P2;SDS_P1;SDS_P2;PMS_P1;PMS_P2;Temp;Humidity;BMP_temperature;BMP_pressure;BME280_temperature;BME280_humidity;BME280_pressure;Samples;Min_cycle;Max_cycle;Signal;HPM_P1;HPM_P2
2023/08/05 00:00:34;;;;;;;10.18;6.60;;;;;;;;;;2531736;23;20071;-90
2023/08/05 00:01:34;;;;;;;9.82;6.40;;;;;;;;;;2535576;23;20023;-90
2023/08/05 00:02:35;;;;;;;10.32;6.57;;;;;;;;;;2531388;23;20018;-90
2023/08/05 00:03:35;;;;;;;11.15;6.40;;;;;;;;;;2519209;23;19994;-92
2023/08/05 00:04:35;;;;;;;9.48;6.57;;;;;;;;;;2519347;23;19990;-91
2023/08/05 00:05:37;;;;;;;11.10;6.70;;;;;;;;;;2531197;23;19994;-91
2023/08/05 00:06:38;;;;;;;12.05;6.80;;;;;;;;;;2543090;23;20045;-91
2023/08/05 00:07:43;;;;;;;10.48;6.90;;;;;;;;;;2535479;23;20137;-91
2023/08/05 00:08:44;;;;;;;9.52;6.82;;;;;;;;;;2548536;23;20068;-90
2023/08/05 00:09:44;;;;;;;11.43;6.38;;;;;;;;;;2531313;23;19998;-91
2023/08/05 00:10:46;;;;;;;15.88;8.50;;;;;;;;;;2531089;23;20357;-92
2023/08/05 00:11:46;;;;;;;9.27;6.53;;;;;;;;;;2530996;23;20400;-91
2023/08/05 00:12:46;;;;;;;11.13;6.70;;;;;;;;;;2518713;23;20026;-89
2023/08/05 00:13:47;;;;;;;10.10;6.75;;;;;;;;;;2531231;23;20351;-90
2023/08/05 00:14:47;;;;;;;10.23;6.25;;;;;;;;;;2531078;23;20080;-90
2023/08/05 00:15:49;;;;;;;10.57;6.90;;;;;;;;;;2535510;23;20447;-90
2023/08/05 00:16:50;;;;;;;7.85;6.50;;;;;;;;;;2529999;23;20002;-91
2023/08/05 00:17:50;;;;;;;10.43;7.13;;;;;;;;;;2535272;23;20026;-90
2023/08/05 00:18:50;;;;;;;12.77;7.85;;;;;;;;;;2543494;23;20064;-91
2023/08/05 00:19:51;;;;;;;10.38;6.85;;;;;;;;;;2530993;23;19998;-90
2023/08/05 00:20:51;;;;;;;7.40;6.70;;;;;;;;;;2535206;23;20404;-90
2023/08/05 00:21:52;;;;;;;11.48;6.95;;;;;;;;;;2117973;23;10002464;-90
2023/08/05 00:22:52;;;;;;;11.18;7.25;;;;;;;;;;2531331;23;20504;-90
2023/08/05 00:23:52;;;;;;;10.90;7.18;;;;;;;;;;2521990;23;20014;-91
2023/08/05 00:24:53;;;;;;;9.85;7.22;;;;;;;;;;2537734;23;19998;-91
2023/08/05 00:25:53;;;;;;;11.40;7.10;;;;;;;;;;2537372;23;19998;-90
2023/08/05 00:26:53;;;;;;;10.48;6.97;;;;;;;;;;2525338;23;20112;-91
2023/08/05 00:27:54;;;;;;;8.15;7.10;;;;;;;;;;2540021;23;20080;-90
2023/08/05 00:28:54;;;;;;;11.00;6.95;;;;;;;;;;2531625;23;19998;-91
2023/08/05 00:29:54;;;;;;;8.70;6.70;;;;;;;;;;2535007;23;20412;-91
2023/08/05 00:30:55;;;;;;;12.10;7.20;;;;;;;;;;2531093;23;20001;-91
2023/08/05 00:31:55;;;;;;;8.77;7.38;;;;;;;;;;2535270;23;20017;-91
2023/08/05 00:32:55;;;;;;;12.13;7.05;;;;;;;;;;2548048;23;20458;-91
2023/08/05 00:33:56;;;;;;;9.80;6.97;;;;;;;;;;2548048;23;19993;-91
2023/08/05 00:34:56;;;;;;;10.20;7.05;;;;;;;;;;2548128;23;20148;-91
2023/08/05 00:35:57;;;;;;;9.27;6.60;;;;;;;;;;2554168;23;20048;-91
2023/08/05 00:36:57;;;;;;;10.45;6.65;;;;;;;;;;2539680;23;20037;-90
2023/08/05 00:37:57;;;;;;;10.23;7.68;;;;;;;;;;2520393;23;20065;-91
2023/08/05 00:38:58;;;;;;;10.63;7.28;;;;;;;;;;2518369;23;20022;-91
2023/08/05 00:40:00;;;;;;;11.18;7.40;;;;;;;;;;2535190;23;20004;-91
2023/08/05 00:41:00;;;;;;;11.02;7.40;;;;;;;;;;2532879;23;20050;-95
2023/08/05 00:42:01;;;;;;;14.43;7.72;;;;;;;;;;2532876;23;20021;-96
2023/08/05 00:43:01;;;;;;;12.50;7.63;;;;;;;;;;2532624;23;20002;-96
2023/08/05 00:44:02;;;;;;;10.30;6.78;;;;;;;;;;2532831;23;20025;-96
2023/08/05 00:45:03;;;;;;;15.10;7.78;;;;;;;;;;2520850;23;20058;-96
2023/08/05 00:46:04;;;;;;;12.77;7.47;;;;;;;;;;2532960;23;20124;-95
2023/08/05 00:47:05;;;;;;;9.45;7.10;;;;;;;;;;2532313;23;20081;-96
2023/08/05 00:48:05;;;;;;;12.77;7.80;;;;;;;;;;2532749;23;19998;-95
2023/08/05 00:49:06;;;;;;;14.25;6.95;;;;;;;;;;2532623;23;20057;-95
2023/08/05 00:50:07;;;;;;;12.10;7.32;;;;;;;;;;2520662;23;20126;-95
2023/08/05 00:51:08;;;;;;;10.27;7.53;;;;;;;;;;2520534;23;20033;-96
2023/08/05 00:52:09;;;;;;;9.45;8.00;;;;;;;;;;2520754;23;20021;-96
2023/08/05 00:53:10;;;;;;;10.80;7.05;;;;;;;;;;2532539;23;20010;-94
2023/08/05 00:54:11;;;;;;;12.30;7.15;;;;;;;;;;2521025;23;20073;-95
2023/08/05 00:55:11;;;;;;;9.48;6.70;;;;;;;;;;2520860;23;20037;-95
2023/08/05 00:56:14;;;;;;;13.50;7.65;;;;;;;;;;2533692;23;19998;-95
2023/08/05 00:57:17;;;;;;;9.47;6.93;;;;;;;;;;2101005;23;10214516;-96
2023/08/05 00:58:20;;;;;;;8.93;7.15;;;;;;;;;;2521253;23;20334;-95
2023/08/05 00:59:20;;;;;;;10.05;7.35;;;;;;;;;;2521080;23;19994;-95
2023/08/05 01:00:21;;;;;;;10.75;7.40;;;;;;;;;;2534178;23;20100;-96
2023/08/05 01:01:21;;;;;;;8.88;7.05;;;;;;;;;;2532477;23;19997;-95
2023/08/05 01:02:22;;;;;;;10.43;7.03;;;;;;;;;;2520744;23;20447;-95
2023/08/05 01:03:23;;;;;;;10.30;7.40;;;;;;;;;;2520442;23;20455;-95
2023/08/05 01:04:26;;;;;;;9.32;6.93;;;;;;;;;;2518530;23;20073;-95
2023/08/05 01:05:30;;;;;;;10.63;7.57;;;;;;;;;;2521342;23;20033;-95
2023/08/05 01:06:33;;;;;;;9.55;7.18;;;;;;;;;;2533519;23;20013;-95
2023/08/05 01:07:36;;;;;;;9.43;7.53;;;;;;;;;;2532791;23;20004;-95
2023/08/05 01:08:36;;;;;;;11.85;7.40;;;;;;;;;;2521360;23;19999;-96
2023/08/05 01:09:37;;;;;;;9.40;7.35;;;;;;;;;;2520460;23;19995;-96
2023/08/05 01:10:41;;;;;;;7.93;7.03;;;;;;;;;;2520701;23;20003;-95
2023/08/05 01:11:41;;;;;;;10.38;7.65;;;;;;;;;;2519728;23;19999;-91
2023/08/05 01:12:42;;;;;;;8.55;7.68;;;;;;;;;;2518931;23;20061;-91
2023/08/05 01:13:42;;;;;;;14.02;7.20;;;;;;;;;;2518696;23;20076;-91
2023/08/05 01:14:43;;;;;;;10.57;7.10;;;;;;;;;;2535633;23;20091;-93
2023/08/05 01:15:44;;;;;;;8.88;7.28;;;;;;;;;;2531044;23;20081;-90
2023/08/05 01:16:44;;;;;;;9.20;7.43;;;;;;;;;;2524929;23;20377;-90
2023/08/05 01:17:45;;;;;;;11.10;7.35;;;;;;;;;;2530475;23;20018;-90
2023/08/05 01:18:45;;;;;;;11.07;6.97;;;;;;;;;;2530951;23;20002;-91
2023/08/05 01:19:46;;;;;;;13.27;7.82;;;;;;;;;;2538621;23;19998;-90
2023/08/05 01:20:52;;;;;;;10.55;7.18;;;;;;;;;;2548315;23;20031;-90
2023/08/05 01:22:23;;;;;;;11.40;7.72;;;;;;;;;;2531113;23;20596;-91
2023/08/05 01:23:47;;;;;;;10.75;7.72;;;;;;;;;;2530456;23;20080;-92
2023/08/05 01:24:59;;;;;;;9.80;7.43;;;;;;;;;;2548878;23;20016;-91
2023/08/05 01:26:02;;;;;;;11.00;7.57;;;;;;;;;;2543832;23;20007;-91
2023/08/05 01:27:04;;;;;;;9.93;7.28;;;;;;;;;;2531368;23;20002;-92
2023/08/05 01:28:05;;;;;;;10.02;6.70;;;;;;;;;;2518982;23;20009;-91
2023/08/05 01:29:07;;;;;;;10.50;7.50;;;;;;;;;;2535427;23;20070;-92
2023/08/05 01:30:08;;;;;;;9.35;7.57;;;;;;;;;;2530844;23;19998;-92
2023/08/05 01:31:10;;;;;;;13.20;7.68;;;;;;;;;;2519348;23;20006;-91
2023/08/05 01:32:12;;;;;;;11.45;7.70;;;;;;;;;;2535214;23;20096;-91
2023/08/05 01:33:14;;;;;;;11.18;7.40;;;;;;;;;;2548380;23;19997;-92
2023/08/05 01:34:15;;;;;;;9.52;7.47;;;;;;;;;;2530936;23;20013;-92
2023/08/05 01:35:18;;;;;;;12.15;7.07;;;;;;;;;;2518852;23;20005;-91
2023/08/05 01:36:20;;;;;;;15.57;7.47;;;;;;;;;;2519211;23;19990;-92
2023/08/05 01:37:20;;;;;;;11.30;8.15;;;;;;;;;;2531217;23;19994;-92
2023/08/05 01:38:20;;;;;;;12.88;8.05;;;;;;;;;;2530942;23;20122;-91
2023/08/05 01:39:21;;;;;;;11.85;8.05;;;;;;;;;;2534995;23;20010;-91
2023/08/05 01:40:24;;;;;;;10.20;7.07;;;;;;;;;;2548033;23;19993;-91
2023/08/05 01:41:25;;;;;;;9.82;7.13;;;;;;;;;;2530982;23;20000;-92
2023/08/05 01:42:25;;;;;;;13.30;7.20;;;;;;;;;;2535261;23;19994;-90
2023/08/05 01:43:25;;;;;;;9.60;7.47;;;;;;;;;;2547847;23;20404;-91
2023/08/05 01:44:26;;;;;;;9.82;7.18;;;;;;;;;;2530848;23;19986;-92
2023/08/05 01:45:26;;;;;;;11.63;7.90;;;;;;;;;;2518691;23;20041;-92
2023/08/05 01:46:27;;;;;;;11.90;7.35;;;;;;;;;;2518689;23;20022;-91
2023/08/05 01:47:27;;;;;;;12.98;7.07;;;;;;;;;;2535085;23;20036;-91
2023/08/05 01:48:27;;;;;;;9.75;7.30;;;;;;;;;;2530799;23;19998;-91
2023/08/05 01:49:28;;;;;;;11.63;7.47;;;;;;;;;;2518727;23;20188;-91
2023/08/05 01:50:28;;;;;;;8.80;7.05;;;;;;;;;;2518822;23;19995;-91
2023/08/05 01:51:29;;;;;;;10.85;7.63;;;;;;;;;;2530947;23;19990;-91
2023/08/05 01:52:29;;;;;;;8.43;7.07;;;;;;;;;;2530745;23;20005;-92
2023/08/05 01:53:29;;;;;;;8.23;7.00;;;;;;;;;;2535241;23;20061;-92
2023/08/05 01:54:30;;;;;;;10.27;7.18;;;;;;;;;;2530825;23;20470;-91
2023/08/05 01:55:30;;;;;;;9.95;7.63;;;;;;;;;;2535478;23;20463;-92
2023/08/05 01:56:31;;;;;;;10.13;7.53;;;;;;;;;;2547997;23;20000;-92
2023/08/05 01:57:31;;;;;;;11.32;7.30;;;;;;;;;;2548076;23;20048;-91
2023/08/05 01:58:32;;;;;;;7.68;6.88;;;;;;;;;;2548034;23;19991;-91
2023/08/05 01:59:32;;;;;;;10.65;7.03;;;;;;;;;;2530837;23;20073;-91
2023/08/05 02:00:33;;;;;;;11.40;7.47;;;;;;;;;;2534946;23;20002;-92
2023/08/05 02:01:46;;;;;;;10.23;7.10;;;;;;;;;;2543015;23;20000;-91
2023/08/05 02:02:46;;;;;;;8.82;7.43;;;;;;;;;;2531062;23;19998;-91
2023/08/05 02:03:47;;;;;;;8.40;6.70;;;;;;;;;;2535107;23;20084;-92
2023/08/05 02:04:47;;;;;;;9.68;7.05;;;;;;;;;;2530818;23;20088;-92
2023/08/05 02:05:48;;;;;;;11.30;7.15;;;;;;;;;;2518874;23;20005;-93
2023/08/05 02:06:48;;;;;;;15.05;8.57;;;;;;;;;;2531140;23;20077;-92
2023/08/05 02:07:48;;;;;;;11.65;7.10;;;;;;;;;;2518941;23;20129;-92
2023/08/05 02:08:49;;;;;;;10.38;7.68;;;;;;;;;;2530993;23;19998;-92
2023/08/05 02:09:49;;;;;;;10.80;7.97;;;;;;;;;;2547091;23;20005;-91
2023/08/05 02:10:50;;;;;;;11.95;7.30;;;;;;;;;;2536514;23;20057;-91
2023/08/05 02:11:50;;;;;;;11.40;8.45;;;;;;;;;;2527427;23;20082;-91
2023/08/05 02:12:51;;;;;;;9.88;7.20;;;;;;;;;;2532528;23;20444;-91
2023/08/05 02:13:52;;;;;;;10.60;7.68;;;;;;;;;;2549063;23;19994;-92
2023/08/05 02:14:52;;;;;;;7.97;7.18;;;;;;;;;;2548728;23;20007;-92
2023/08/05 02:15:52;;;;;;;10.30;8.10;;;;;;;;;;2548831;23;20032;-91
2023/08/05 02:16:53;;;;;;;9.25;7.45;;;;;;;;;;2531744;23;20029;-92
2023/08/05 02:17:53;;;;;;;11.38;7.72;;;;;;;;;;2519433;23;19999;-91
2023/08/05 02:18:54;;;;;;;10.25;7.80;;;;;;;;;;2531592;23;19998;-92
2023/08/05 02:19:54;;;;;;;10.07;7.47;;;;;;;;;;2531468;23;20027;-91
2023/08/05 02:20:54;;;;;;;10.90;8.27;;;;;;;;;;2536154;23;20027;-92
2023/08/05 02:21:55;;;;;;;9.40;7.60;;;;;;;;;;2549094;23;19997;-92
2023/08/05 02:22:55;;;;;;;9.65;7.45;;;;;;;;;;2531854;23;19994;-91
2023/08/05 02:23:56;;;;;;;11.85;7.65;;;;;;;;;;2536042;23;20064;-91
2023/08/05 02:24:56;;;;;;;14.38;8.63;;;;;;;;;;2548982;23;19989;-91
2023/08/05 02:25:57;;;;;;;11.60;7.95;;;;;;;;;;2548834;23;20021;-91
2023/08/05 02:26:57;;;;;;;9.63;7.90;;;;;;;;;;2531693;23;20002;-92
2023/08/05 02:27:58;;;;;;;11.82;7.85;;;;;;;;;;2519867;23;20041;-91
2023/08/05 02:28:58;;;;;;;10.70;7.93;;;;;;;;;;2519679;23;20073;-91
2023/08/05 02:29:58;;;;;;;10.90;7.55;;;;;;;;;;2519649;23;20002;-91
2023/08/05 02:30:59;;;;;;;9.38;7.65;;;;;;;;;;2531552;23;19998;-92
2023/08/05 02:31:59;;;;;;;10.75;7.50;;;;;;;;;;2531688;23;20451;-92
2023/08/05 02:33:00;;;;;;;9.20;7.30;;;;;;;;;;2531814;23;19998;-92
2023/08/05 02:34:01;;;;;;;12.40;7.20;;;;;;;;;;2519616;23;20002;-92
2023/08/05 02:35:01;;;;;;;13.93;7.80;;;;;;;;;;2535828;23;20313;-92
2023/08/05 02:36:02;;;;;;;9.25;7.40;;;;;;;;;;2531389;23;19998;-91
2023/08/05 02:37:03;;;;;;;7.85;7.05;;;;;;;;;;2092923;23;10157542;-92
2023/08/05 02:38:04;;;;;;;9.55;7.57;;;;;;;;;;2532904;23;20111;-92
2023/08/05 02:39:04;;;;;;;9.38;7.68;;;;;;;;;;2543972;23;20039;-91
2023/08/05 02:40:05;;;;;;;9.88;7.93;;;;;;;;;;2531787;23;20376;-92
2023/08/05 02:41:07;;;;;;;14.35;8.13;;;;;;;;;;2536034;23;20474;-92
2023/08/05 02:42:08;;;;;;;9.07;7.45;;;;;;;;;;2531767;23;20021;-92
2023/08/05 02:43:08;;;;;;;11.48;7.80;;;;;;;;;;2531958;23;20382;-90
2023/08/05 02:44:09;;;;;;;11.57;7.43;;;;;;;;;;2532085;23;20002;-91
2023/08/05 02:45:09;;;;;;;10.57;7.30;;;;;;;;;;2535909;23;20057;-91
2023/08/05 02:46:09;;;;;;;10.20;7.63;;;;;;;;;;2531688;23;20424;-91
2023/08/05 02:47:10;;;;;;;11.63;8.30;;;;;;;;;;2519735;23;20526;-91
2023/08/05 02:48:10;;;;;;;10.52;8.18;;;;;;;;;;2531912;23;20037;-91
2023/08/05 02:49:11;;;;;;;10.88;8.30;;;;;;;;;;2536162;23;19998;-91
2023/08/05 02:50:11;;;;;;;10.38;8.50;;;;;;;;;;2548953;23;19998;-91
2023/08/05 02:51:11;;;;;;;11.95;8.20;;;;;;;;;;2532319;23;20049;-91
2023/08/05 02:52:12;;;;;;;10.73;8.90;;;;;;;;;;2520076;23;20042;-91
2023/08/05 02:53:12;;;;;;;11.07;8.23;;;;;;;;;;2532044;23;20005;-92
2023/08/05 02:54:13;;;;;;;10.48;8.68;;;;;;;;;;2544594;23;20007;-91
2023/08/05 02:55:13;;;;;;;10.48;8.32;;;;;;;;;;2531596;23;20082;-91
2023/08/05 02:56:14;;;;;;;13.13;9.65;;;;;;;;;;2519432;23;20077;-92
2023/08/05 02:57:14;;;;;;;10.45;8.70;;;;;;;;;;2519747;23;20540;-91
2023/08/05 02:58:15;;;;;;;11.07;8.43;;;;;;;;;;2527481;23;19998;-91
2023/08/05 02:59:16;;;;;;;11.82;9.15;;;;;;;;;;2545190;23;20448;-92
2023/08/05 03:00:16;;;;;;;13.65;8.52;;;;;;;;;;2531778;23;20082;-91
2023/08/05 03:01:17;;;;;;;13.88;9.18;;;;;;;;;;2519412;23;20004;-91
2023/08/05 03:02:17;;;;;;;14.80;8.52;;;;;;;;;;2096360;23;10308349;-91
2023/08/05 03:03:17;;;;;;;11.10;8.80;;;;;;;;;;2531845;23;20081;-91
2023/08/05 03:04:18;;;;;;;11.43;9.05;;;;;;;;;;2519549;23;20003;-91
2023/08/05 03:05:18;;;;;;;11.07;9.18;;;;;;;;;;2519887;23;20035;-91
2023/08/05 03:06:19;;;;;;;11.18;8.80;;;;;;;;;;2535902;23;19990;-92
2023/08/05 03:07:19;;;;;;;9.80;7.45;;;;;;;;;;2531996;23;19993;-91
2023/08/05 03:08:19;;;;;;;12.00;8.63;;;;;;;;;;2519764;23;20471;-92
2023/08/05 03:09:20;;;;;;;9.20;8.18;;;;;;;;;;2519567;23;20081;-91
2023/08/05 03:10:21;;;;;;;13.90;8.55;;;;;;;;;;2519503;23;19991;-91
2023/08/05 03:11:22;;;;;;;11.27;8.98;;;;;;;;;;2536096;23;19996;-92
2023/08/05 03:12:22;;;;;;;13.23;9.57;;;;;;;;;;2531875;23;20032;-91
2023/08/05 03:13:23;;;;;;;12.35;8.55;;;;;;;;;;2531749;23;20423;-91
2023/08/05 03:14:23;;;;;;;10.30;8.43;;;;;;;;;;2543657;23;19997;-91
2023/08/05 03:15:28;;;;;;;11.88;9.10;;;;;;;;;;2531490;23;20397;-91
2023/08/05 03:16:28;;;;;;;13.68;8.77;;;;;;;;;;2531428;23;20118;-91
2023/08/05 03:17:29;;;;;;;11.70;9.00;;;;;;;;;;2519691;23;20420;-91
2023/08/05 03:18:29;;;;;;;13.20;9.48;;;;;;;;;;2519486;23;20337;-91
2023/08/05 03:19:30;;;;;;;11.60;8.63;;;;;;;;;;2531657;23;20029;-91
2023/08/05 03:20:34;;;;;;;11.75;9.07;;;;;;;;;;2548044;23;20020;-92
2023/08/05 03:21:34;;;;;;;10.73;8.40;;;;;;;;;;2531414;23;20001;-91
2023/08/05 03:22:35;;;;;;;12.40;9.30;;;;;;;;;;2519378;23;20397;-92
2023/08/05 03:23:35;;;;;;;12.32;9.35;;;;;;;;;;2519467;23;19995;-91
2023/08/05 03:24:35;;;;;;;12.13;8.70;;;;;;;;;;2518817;23;20046;-91
2023/08/05 03:25:36;;;;;;;13.00;10.02;;;;;;;;;;2531318;23;19994;-92
2023/08/05 03:26:36;;;;;;;15.93;9.32;;;;;;;;;;2531769;23;20477;-91
2023/08/05 03:27:37;;;;;;;13.95;8.95;;;;;;;;;;2531420;23;20065;-91
2023/08/05 03:28:37;;;;;;;16.73;9.20;;;;;;;;;;2543702;23;20022;-91
2023/08/05 03:29:38;;;;;;;11.63;9.55;;;;;;;;;;2547739;23;20451;-91
2023/08/05 03:30:38;;;;;;;15.82;10.57;;;;;;;;;;2531604;23;20009;-91
2023/08/05 03:31:38;;;;;;;13.82;9.70;;;;;;;;;;2535578;23;20515;-92
2023/08/05 03:32:39;;;;;;;12.00;9.45;;;;;;;;;;2531684;23;20028;-91
2023/08/05 03:33:41;;;;;;;11.77;8.95;;;;;;;;;;2529499;23;20078;-91
2023/08/05 03:34:42;;;;;;;14.65;9.25;;;;;;;;;;2546893;23;20009;-92
2023/08/05 03:35:43;;;;;;;11.85;9.20;;;;;;;;;;2560287;23;20016;-91
2023/08/05 03:36:43;;;;;;;11.90;9.15;;;;;;;;;;2552299;23;20347;-91
2023/08/05 03:37:45;;;;;;;15.82;8.93;;;;;;;;;;2532203;23;20081;-91
2023/08/05 03:38:45;;;;;;;12.63;9.27;;;;;;;;;;2535620;23;20325;-91
2023/08/05 03:39:47;;;;;;;12.90;9.73;;;;;;;;;;2531464;23;20037;-92
2023/08/05 03:40:48;;;;;;;13.57;10.48;;;;;;;;;;2535906;23;20404;-92
2023/08/05 03:41:48;;;;;;;10.52;9.43;;;;;;;;;;2532157;23;19994;-93
2023/08/05 03:42:49;;;;;;;11.15;9.20;;;;;;;;;;2536930;23;20001;-92
2023/08/05 03:43:49;;;;;;;12.57;9.00;;;;;;;;;;2532348;23;20014;-92
2023/08/05 03:44:50;;;;;;;13.45;9.40;;;;;;;;;;2523591;23;20380;-92
2023/08/05 03:45:51;;;;;;;12.85;9.50;;;;;;;;;;2546539;23;20038;-91
2023/08/05 03:46:51;;;;;;;12.63;9.32;;;;;;;;;;2544082;23;20077;-92
2023/08/05 03:47:53;;;;;;;12.77;9.10;;;;;;;;;;2537426;23;20068;-93
2023/08/05 03:48:55;;;;;;;13.32;9.10;;;;;;;;;;2537515;23;20008;-92
2023/08/05 03:49:56;;;;;;;12.45;8.73;;;;;;;;;;2532458;23;20080;-93
2023/08/05 03:50:56;;;;;;;15.02;9.77;;;;;;;;;;2532503;23;19998;-93
2023/08/05 03:51:56;;;;;;;11.10;9.57;;;;;;;;;;2520689;23;20065;-92
2023/08/05 03:52:57;;;;;;;11.85;9.82;;;;;;;;;;2520296;23;20006;-93
2023/08/05 03:53:58;;;;;;;12.10;9.90;;;;;;;;;;2520289;23;20369;-92
2023/08/05 03:54:58;;;;;;;10.27;8.73;;;;;;;;;;2536567;23;19994;-92
2023/08/05 03:55:59;;;;;;;10.38;9.05;;;;;;;;;;2532800;23;20006;-93
2023/08/05 03:57:09;;;;;;;11.70;9.40;;;;;;;;;;2532975;23;20046;-93
2023/08/05 03:58:11;;;;;;;14.32;9.35;;;;;;;;;;2522740;23;20375;-94
2023/08/05 03:59:11;;;;;;;13.45;9.20;;;;;;;;;;2520679;23;19994;-94
2023/08/05 04:00:12;;;;;;;10.48;8.82;;;;;;;;;;2533149;23;20006;-94
2023/08/05 04:01:16;;;;;;;12.15;9.18;;;;;;;;;;2532565;23;20443;-93
2023/08/05 04:02:20;;;;;;;12.05;9.20;;;;;;;;;;2106039;23;10119004;-94
2023/08/05 04:03:22;;;;;;;12.10;9.82;;;;;;;;;;2532622;23;20473;-92
2023/08/05 04:04:23;;;;;;;14.65;10.50;;;;;;;;;;2536700;23;19990;-95
2023/08/05 04:05:23;;;;;;;12.18;9.63;;;;;;;;;;2532349;23;20005;-93
2023/08/05 04:06:25;;;;;;;13.68;9.88;;;;;;;;;;2520327;23;20069;-93
2023/08/05 04:07:26;;;;;;;12.90;10.02;;;;;;;;;;2536784;23;19993;-94
2023/08/05 04:08:27;;;;;;;14.77;10.07;;;;;;;;;;2532288;23;20442;-95
2023/08/05 04:09:28;;;;;;;13.13;10.07;;;;;;;;;;2520580;23;19998;-94
2023/08/05 04:10:30;;;;;;;15.02;10.48;;;;;;;;;;2520667;23;20364;-93
2023/08/05 04:11:32;;;;;;;12.57;10.20;;;;;;;;;;2536423;23;20464;-93
2023/08/05 04:12:35;;;;;;;11.50;10.20;;;;;;;;;;2537272;23;20456;-93
2023/08/05 04:13:39;;;;;;;14.07;10.20;;;;;;;;;;2532677;23;19990;-92
2023/08/05 04:14:39;;;;;;;13.25;10.20;;;;;;;;;;2532309;23;19998;-92
2023/08/05 04:15:40;;;;;;;17.63;10.93;;;;;;;;;;2532347;23;20077;-92
2023/08/05 04:16:41;;;;;;;14.52;10.88;;;;;;;;;;2532394;23;20002;-93
2023/08/05 04:17:42;;;;;;;14.93;10.50;;;;;;;;;;2532333;23;20081;-93
2023/08/05 04:18:47;;;;;;;13.68;10.25;;;;;;;;;;2532430;23;20005;-93
2023/08/05 04:19:49;;;;;;;11.80;10.52;;;;;;;;;;2536235;23;19990;-94
2023/08/05 04:20:51;;;;;;;16.40;10.48;;;;;;;;;;2524892;23;20073;-92
2023/08/05 04:21:52;;;;;;;14.10;9.73;;;;;;;;;;2543213;23;19993;-92
2023/08/05 04:22:53;;;;;;;12.52;10.40;;;;;;;;;;2540106;23;20006;-93
2023/08/05 04:23:58;;;;;;;15.25;10.82;;;;;;;;;;2524831;23;20021;-93
2023/08/05 04:24:58;;;;;;;12.65;10.02;;;;;;;;;;2543327;23;20061;-93
2023/08/05 04:25:59;;;;;;;15.57;10.35;;;;;;;;;;2542510;23;19997;-91
2023/08/05 04:27:00;;;;;;;12.65;10.75;;;;;;;;;;2538400;23;20038;-92
2023/08/05 04:28:00;;;;;;;15.90;11.35;;;;;;;;;;2541435;23;19994;-93
2023/08/05 04:29:02;;;;;;;13.68;10.20;;;;;;;;;;2537774;23;20002;-93
2023/08/05 04:30:06;;;;;;;12.55;10.50;;;;;;;;;;2537814;23;20022;-92
2023/08/05 04:31:06;;;;;;;13.55;10.02;;;;;;;;;;2542104;23;19997;-91
2023/08/05 04:32:07;;;;;;;15.55;11.05;;;;;;;;;;2539286;23;20009;-92
2023/08/05 04:33:08;;;;;;;13.75;10.18;;;;;;;;;;2547484;23;20046;-93
2023/08/05 04:34:09;;;;;;;13.38;10.27;;;;;;;;;;2541734;23;20006;-92
2023/08/05 04:35:09;;;;;;;12.73;10.68;;;;;;;;;;2520089;23;19999;-91
2023/08/05 04:36:12;;;;;;;13.18;10.90;;;;;;;;;;2532233;23;20376;-91
2023/08/05 04:37:17;;;;;;;13.27;10.77;;;;;;;;;;2521671;23;20002;-93
2023/08/05 04:38:18;;;;;;;12.57;10.73;;;;;;;;;;2521989;23;20061;-93
2023/08/05 04:39:19;;;;;;;12.73;10.52;;;;;;;;;;2521213;23;20386;-92
2023/08/05 04:40:19;;;;;;;10.57;9.07;;;;;;;;;;2521012;23;20081;-92
2023/08/05 04:41:20;;;;;;;11.07;9.00;;;;;;;;;;2520391;23;20010;-93
2023/08/05 04:42:20;;;;;;;12.68;10.48;;;;;;;;;;2520492;23;19998;-92
2023/08/05 04:43:21;;;;;;;15.15;10.43;;;;;;;;;;2536543;23;20001;-92
2023/08/05 04:44:22;;;;;;;12.43;9.98;;;;;;;;;;2106300;23;10319565;-92
2023/08/05 04:45:23;;;;;;;10.63;8.75;;;;;;;;;;2532662;23;20008;-92
2023/08/05 04:46:23;;;;;;;9.70;8.43;;;;;;;;;;2532182;23;20478;-92
2023/08/05 04:47:24;;;;;;;10.98;9.02;;;;;;;;;;2548916;23;20017;-91
2023/08/05 04:48:24;;;;;;;8.85;7.88;;;;;;;;;;2537237;23;20387;-91
2023/08/05 04:49:28;;;;;;;9.02;8.13;;;;;;;;;;2536752;23;20034;-93
2023/08/05 04:50:29;;;;;;;9.90;8.75;;;;;;;;;;2532547;23;19997;-92
2023/08/05 04:51:29;;;;;;;9.38;8.38;;;;;;;;;;2520156;23;20002;-93
2023/08/05 04:52:32;;;;;;;8.73;7.70;;;;;;;;;;2520247;23;20425;-92
2023/08/05 04:53:33;;;;;;;10.43;8.30;;;;;;;;;;2532143;23;19998;-92
2023/08/05 04:54:43;;;;;;;8.85;7.63;;;;;;;;;;2532898;23;20486;-93
2023/08/05 04:55:44;;;;;;;;;;;;;;;;;;2522636;23;20081;-92
2023/08/05 04:56:44;;;;;;;;;;;;;;;;;;2537562;23;19905;-93
2023/08/05 04:57:50;;;;;;;8.73;7.43;;;;;;;;;;2531574;23;20345;-92
2023/08/05 04:58:51;;;;;;;8.00;7.22;;;;;;;;;;2521300;23;20263;-94
2023/08/05 04:59:51;;;;;;;10.23;7.68;;;;;;;;;;2520327;23;20007;-94
2023/08/05 05:00:56;;;;;;;8.50;6.68;;;;;;;;;;2520124;23;20074;-94
2023/08/05 05:01:57;;;;;;;9.02;7.22;;;;;;;;;;2520999;23;20396;-92
2023/08/05 05:02:57;;;;;;;9.65;6.93;;;;;;;;;;2536192;23;20002;-94
2023/08/05 05:03:57;;;;;;;8.60;6.15;;;;;;;;;;2532041;23;19990;-93
2023/08/05 05:04:58;;;;;;;8.80;6.55;;;;;;;;;;2519446;23;19995;-93
2023/08/05 05:05:58;;;;;;;8.50;6.80;;;;;;;;;;2519537;23;20393;-93
2023/08/05 05:06:59;;;;;;;6.45;5.78;;;;;;;;;;2519571;23;20025;-93
2023/08/05 05:08:15;;;;;;;8.88;6.40;;;;;;;;;;2531413;23;20017;-93
2023/08/05 05:09:15;;;;;;;8.35;6.60;;;;;;;;;;2539276;23;20004;-93
2023/08/05 05:12:04;;;;;;;8.77;6.47;;;;;;;;;;2509180;23;20003;-93
2023/08/05 05:13:04;;;;;;;10.30;6.57;;;;;;;;;;2536981;23;19997;-93
2023/08/05 05:14:08;;;;;;;7.90;7.03;;;;;;;;;;2531417;23;20088;-93
2023/08/05 05:15:12;;;;;;;8.68;7.43;;;;;;;;;;2532032;23;20474;-94
2023/08/05 05:16:38;;;;;;;8.82;7.40;;;;;;;;;;2520483;23;20025;-92
2023/08/05 05:17:41;;;;;;;8.63;7.00;;;;;;;;;;2529241;23;20005;-93
2023/08/05 05:18:42;;;;;;;7.82;6.47;;;;;;;;;;2536071;23;20024;-94
2023/08/05 05:20:05;;;;;;;8.70;7.88;;;;;;;;;;2536627;23;20001;-94
2023/08/05 05:21:09;;;;;;;7.32;6.63;;;;;;;;;;2542740;23;20017;-94
2023/08/05 05:22:10;;;;;;;7.80;6.55;;;;;;;;;;2525492;23;20041;-93
2023/08/05 05:23:10;;;;;;;6.88;6.22;;;;;;;;;;2532229;23;20427;-93
2023/08/05 05:24:10;;;;;;;7.07;6.40;;;;;;;;;;2519820;23;20371;-93
2023/08/05 05:25:11;;;;;;;7.95;6.80;;;;;;;;;;2520351;23;19998;-93
2023/08/05 05:26:11;;;;;;;8.73;6.50;;;;;;;;;;2520978;23;20026;-93
2023/08/05 05:27:17;;;;;;;6.40;5.80;;;;;;;;;;2519924;23;19998;-93
2023/08/05 05:28:18;;;;;;;6.47;5.88;;;;;;;;;;2524698;23;20463;-93
2023/08/05 05:29:20;;;;;;;6.25;5.65;;;;;;;;;;2531982;23;19998;-92
2023/08/05 05:30:21;;;;;;;7.60;5.90;;;;;;;;;;2532446;23;20144;-93
2023/08/05 05:31:21;;;;;;;6.72;6.05;;;;;;;;;;2550048;23;20052;-94
2023/08/05 05:32:22;;;;;;;7.65;6.05;;;;;;;;;;2532165;23;19993;-93
2023/08/05 05:33:22;;;;;;;8.70;6.05;;;;;;;;;;2520634;23;19990;-93
2023/08/05 05:34:23;;;;;;;6.72;5.97;;;;;;;;;;2535743;23;20110;-92
2023/08/05 05:35:35;;;;;;;7.72;5.97;;;;;;;;;;2531881;23;19998;-92
2023/08/05 05:36:35;;;;;;;6.32;5.72;;;;;;;;;;2537419;23;20325;-92
2023/08/05 05:37:36;;;;;;;6.43;5.63;;;;;;;;;;2537063;23;19994;-94
2023/08/05 05:38:36;;;;;;;8.50;6.75;;;;;;;;;;2531946;23;20460;-94
2023/08/05 05:39:37;;;;;;;8.57;6.88;;;;;;;;;;2531822;23;20352;-93
2023/08/05 05:40:40;;;;;;;6.53;5.75;;;;;;;;;;2532090;23;20414;-93
2023/08/05 05:41:40;;;;;;;6.03;5.50;;;;;;;;;;2520178;23;20049;-93
2023/08/05 05:42:41;;;;;;;6.35;5.57;;;;;;;;;;2519864;23;20006;-94
2023/08/05 05:45:42;;;;;;;5.97;5.47;;;;;;;;;;2529762;23;20455;-94
2023/08/05 05:47:37;;;;;;;5.60;5.00;;;;;;;;;;2531861;23;20030;-94
2023/08/05 05:49:19;;;;;;;5.82;5.15;;;;;;;;;;2530595;23;20002;-95
2023/08/05 05:51:17;;;;;;;7.53;5.60;;;;;;;;;;2528203;23;19994;-94
2023/08/05 05:55:17;;;;;;;5.28;4.70;;;;;;;;;;2532684;23;20457;-95
2023/08/05 05:56:18;;;;;;;5.90;5.40;;;;;;;;;;2519915;23;19999;-93
2023/08/05 05:57:19;;;;;;;5.55;4.65;;;;;;;;;;2507960;23;20033;-92
2023/08/05 05:58:20;;;;;;;5.80;4.90;;;;;;;;;;2523567;23;20456;-93
2023/08/05 05:59:20;;;;;;;7.39;4.60;;;;;;;;;;2101799;23;10267394;-91
2023/08/05 06:00:20;;;;;;;5.78;5.25;;;;;;;;;;2519512;23;20054;-92
2023/08/05 06:01:24;;;;;;;6.63;5.13;;;;;;;;;;2523824;23;19990;-93
2023/08/05 06:02:25;;;;;;;7.00;5.60;;;;;;;;;;2519664;23;20300;-94
2023/08/05 06:03:25;;;;;;;5.93;5.43;;;;;;;;;;2519731;23;20072;-93
2023/08/05 06:04:28;;;;;;;7.30;5.60;;;;;;;;;;2523750;23;19990;-92
2023/08/05 06:05:29;;;;;;;6.68;6.05;;;;;;;;;;2536273;23;20442;-94
2023/08/05 06:06:33;;;;;;;10.73;5.75;;;;;;;;;;2538690;23;19998;-92
2023/08/05 06:07:42;;;;;;;7.05;5.00;;;;;;;;;;2544367;23;19990;-90
2023/08/05 06:08:43;;;;;;;6.30;5.70;;;;;;;;;;2541640;23;20001;-92
2023/08/05 06:09:43;;;;;;;6.20;5.60;;;;;;;;;;2519777;23;19999;-93
2023/08/05 06:10:44;;;;;;;7.97;5.50;;;;;;;;;;2523907;23;20493;-93
2023/08/05 06:11:45;;;;;;;7.43;6.40;;;;;;;;;;2536782;23;20452;-94
2023/08/05 06:12:52;;;;;;;9.85;5.65;;;;;;;;;;2536989;23;19998;-95
2023/08/05 06:13:52;;;;;;;8.05;5.70;;;;;;;;;;2516453;23;20002;-92